Map

Track Data

SID SEASON NUMBER BASIN SUBBASIN NAME ISO_TIME NATURE LAT LON WMO_WIND WMO_PRES WMO_AGENCY TRACK_TYPE DIST2LAND LANDFALL IFLAG USA_AGENCY USA_ATCF_ID USA_LAT USA_LON USA_RECORD USA_STATUS USA_WIND USA_PRES USA_SSHS USA_R34_NE USA_R34_SE USA_R34_SW USA_R34_NW USA_R50_NE USA_R50_SE USA_R50_SW USA_R50_NW USA_R64_NE USA_R64_SE USA_R64_SW USA_R64_NW USA_POCI USA_ROCI USA_RMW USA_EYE TOKYO_LAT TOKYO_LON TOKYO_GRADE TOKYO_WIND TOKYO_PRES TOKYO_R50_DIR TOKYO_R50_LONG TOKYO_R50_SHORT TOKYO_R30_DIR TOKYO_R30_LONG TOKYO_R30_SHORT TOKYO_LAND CMA_LAT CMA_LON CMA_CAT CMA_WIND CMA_PRES HKO_LAT HKO_LON HKO_CAT HKO_WIND HKO_PRES NEWDELHI_LAT NEWDELHI_LON NEWDELHI_GRADE NEWDELHI_WIND NEWDELHI_PRES NEWDELHI_CI NEWDELHI_DP NEWDELHI_POCI REUNION_LAT REUNION_LON REUNION_TYPE REUNION_WIND REUNION_PRES REUNION_TNUM REUNION_CI REUNION_RMW REUNION_R34_NE REUNION_R34_SE REUNION_R34_SW REUNION_R34_NW REUNION_R50_NE REUNION_R50_SE REUNION_R50_SW REUNION_R50_NW REUNION_R64_NE REUNION_R64_SE REUNION_R64_SW REUNION_R64_NW BOM_LAT BOM_LON BOM_TYPE BOM_WIND BOM_PRES BOM_TNUM BOM_CI BOM_RMW BOM_R34_NE BOM_R34_SE BOM_R34_SW BOM_R34_NW BOM_R50_NE BOM_R50_SE BOM_R50_SW BOM_R50_NW BOM_R64_NE BOM_R64_SE BOM_R64_SW BOM_R64_NW BOM_ROCI BOM_POCI BOM_EYE BOM_POS_METHOD BOM_PRES_METHOD NADI_LAT NADI_LON NADI_CAT NADI_WIND NADI_PRES WELLINGTON_LAT WELLINGTON_LON WELLINGTON_WIND WELLINGTON_PRES DS824_LAT DS824_LON DS824_STAGE DS824_WIND DS824_PRES TD9636_LAT TD9636_LON TD9636_STAGE TD9636_WIND TD9636_PRES TD9635_LAT TD9635_LON TD9635_WIND TD9635_PRES TD9635_ROCI NEUMANN_LAT NEUMANN_LON NEUMANN_CLASS NEUMANN_WIND NEUMANN_PRES MLC_LAT MLC_LON MLC_CLASS MLC_WIND MLC_PRES USA_GUST BOM_GUST BOM_GUST_PER REUNION_GUST REUNION_GUST_PER USA_SEAHGT USA_SEARAD_NE USA_SEARAD_SE USA_SEARAD_SW USA_SEARAD_NW STORM_SPEED STORM_DIR
1960267N18116 1960 73 WP MM NOT_NAMED 1960-09-22 12:00:00 TS 18.3000 116.100 main 451 451 __O___________ -1 18.3000 116.100 0 1005 9 251
1960267N18116 1960 73 WP MM NOT_NAMED 1960-09-22 15:00:00 TS 18.1552 115.650 main 478 476 __P___________ -1 18.1552 115.650 0 1005 9 251
1960267N18116 1960 73 WP MM NOT_NAMED 1960-09-22 18:00:00 TS 18.0000 115.200 main 476 443 __O___________ -1 18.0000 115.200 0 1005 9 248
1960267N18116 1960 73 WP MM NOT_NAMED 1960-09-22 21:00:00 TS 17.8225 114.763 main 448 422 __P___________ -1 17.8225 114.763 0 1005 9 242
1960267N18116 1960 73 WP MM NOT_NAMED 1960-09-23 00:00:00 TS 17.6000 114.400 main 422 409 __O___________ -1 17.6000 114.400 0 1005 8 231
1960267N18116 1960 73 WP MM NOT_NAMED 1960-09-23 03:00:00 TS 17.3224 114.117 main 415 411 __P___________ -1 17.3224 114.117 0 1005 7 212
1960267N18116 1960 73 WP MM NOT_NAMED 1960-09-23 06:00:00 TS 17.0000 114.000 main 421 421 __O___________ -1 17.0000 114.000 0 1005 7 183
1960267N18116 1960 73 WP MM NOT_NAMED 1960-09-23 09:00:00 TS 16.5824 114.068 main 453 453 __P___________ -1 16.5824 114.068 0 1005 8 158
1960267N18116 1960 73 WP MM NOT_NAMED 1960-09-23 12:00:00 TS 16.3000 114.300 main 490 490 __O___________ -1 16.3000 114.300 0 1005 6 113
1960267N18116 1960 73 WP MM NOT_NAMED 1960-09-23 15:00:00 TS 16.3527 114.642 main 510 506 __P___________ -1 16.3527 114.642 0 1005 7 66
1960267N18116 1960 73 WP MM NOT_NAMED 1960-09-23 18:00:00 TS 16.6000 115.000 main 506 488 __O___________ -1 16.6000 115.000 0 1005 8 47
1960267N18116 1960 73 WP MM NOT_NAMED 1960-09-23 21:00:00 TS 16.8774 115.237 main 490 474 __P___________ -1 16.8774 115.237 0 1005 7 33
1960267N18116 1960 73 WP MM NOT_NAMED 1960-09-24 00:00:00 TS 17.2000 115.400 main 477 470 __O___________ -1 17.2000 115.400 0 1005 7 25
1960267N18116 1960 73 WP MM NOT_NAMED 1960-09-24 03:00:00 TS 17.5075 115.545 main 476 466 __P___________ -1 17.5075 115.545 0 1005 6 18
1960267N18116 1960 73 WP MM NOT_NAMED 1960-09-24 06:00:00 TS 17.8000 115.600 main 477 477 __O___________ -1 17.8000 115.600 0 1005 6 1
1960267N18116 1960 73 WP MM NOT_NAMED 1960-09-24 09:00:00 TS 18.0725 115.545 main 486 461 __P___________ -1 18.0725 115.545 0 1005 5 339
1960267N18116 1960 73 WP MM NOT_NAMED 1960-09-24 12:00:00 TS 18.3000 115.400 main 461 435 __O___________ -1 18.3000 115.400 0 1005 5 323
1960267N18116 1960 73 WP MM NOT_NAMED 1960-09-24 15:00:00 TS 18.4800 115.223 main 435 420 __P___________ -1 18.4800 115.223 0 1005 5 308
1960267N18116 1960 73 WP MM NOT_NAMED 1960-09-24 18:00:00 TS 18.6000 115.000 main 420 404 __O___________ -1 18.6000 115.000 0 1005 5 294
1960267N18116 1960 73 WP MM NOT_NAMED 1960-09-24 21:00:00 TS 18.6725 114.757 main 404 381 __P___________ -1 18.6725 114.757 0 1005 5 282
1960267N18116 1960 73 WP MM NOT_NAMED 1960-09-25 00:00:00 TS 18.7000 114.500 main 381 360 __O___________ -1 18.7000 114.500 0 1005 5 274
1960267N18116 1960 73 WP MM NOT_NAMED 1960-09-25 03:00:00 TS 18.7074 114.272 main 360 330 __P___________ -1 18.7074 114.272 0 1004 5 270
1960267N18116 1960 73 WP MM NOT_NAMED 1960-09-25 06:00:00 TS 18.7000 114.000 main 330 291 __O___________ -1 18.7000 114.000 1 23 1003 6 269
1960267N18116 1960 73 WP MM NOT_NAMED 1960-09-25 09:00:00 TS 18.6925 113.622 main 291 252 __P___________ -1 18.6925 113.622 1 23 1001 8 270
1960267N18116 1960 73 WP MM NOT_NAMED 1960-09-25 12:00:00 TS 18.7000 113.200 main 252 214 __O___________ -1 18.7000 113.200 1 23 1000 8 274
1960267N18116 1960 73 WP MM NOT_NAMED 1960-09-25 15:00:00 TS 18.7499 112.808 main 214 172 __P___________ -1 18.7499 112.808 1 23 1000 8 278
1960267N18116 1960 73 WP MM NOT_NAMED 1960-09-25 18:00:00 TS 18.8000 112.400 main 172 137 __O___________ -1 18.8000 112.400 1 23 1000 8 272
1960267N18116 1960 73 WP MM NOT_NAMED 1960-09-25 21:00:00 TS 18.7772 111.987 main 137 97 __P___________ -1 18.7772 111.987 1 23 999 9 270
1960267N18116 1960 73 WP MM NOT_NAMED 1960-09-26 00:00:00 TS 18.8000 111.500 main 97 33 __O___________ -1 18.8000 111.500 1 23 998 11 280
1960267N18116 1960 73 WP MM NOT_NAMED 1960-09-26 03:00:00 TS 18.9552 110.865 main 31 0 __P___________ -1 18.9552 110.865 1 23 999 13 288
1960267N18116 1960 73 WP MM NOT_NAMED 1960-09-26 06:00:00 TS 19.2000 110.200 main 0 0 __O___________ -1 19.2000 110.200 1 23 1000 13 294
1960267N18116 1960 73 WP MM NOT_NAMED 1960-09-26 09:00:00 TS 19.4850 109.598 main 0 0 __P___________ -1 19.4850 109.598 1 21 1000 12 300
1960267N18116 1960 73 WP MM NOT_NAMED 1960-09-26 12:00:00 TS 19.8000 109.100 main 15 15 __O___________ -1 19.8000 109.100 0 19 1000 10 308
1960267N18116 1960 73 WP MM NOT_NAMED 1960-09-26 15:00:00 TS 20.0997 108.755 main 61 61 __P___________ -1 20.0997 108.755 0 19 1001 8 317
1960267N18116 1960 73 WP MM NOT_NAMED 1960-09-26 18:00:00 TS 20.4000 108.500 main 107 88 __O___________ -1 20.4000 108.500 0 19 1002 7 325
1960267N18116 1960 73 WP MM NOT_NAMED 1960-09-26 21:00:00 TS 20.7070 108.302 main 88 45 __P___________ -1 20.7070 108.302 0 21 1002 8 322
1960267N18116 1960 73 WP MM NOT_NAMED 1960-09-27 00:00:00 TS 21.0000 108.000 main 45 0 __O___________ -1 21.0000 108.000 1 23 1002 10 307
1960267N18116 1960 73 WP MM NOT_NAMED 1960-09-27 03:00:00 TS 21.3250 107.433 main 0 0 __P___________ -1 21.3250 107.433 1 21 1002 13 292
1960267N18116 1960 73 WP MM NOT_NAMED 1960-09-27 06:00:00 TS 21.5000 106.700 main 0 0 __O___________ -1 21.5000 106.700 0 19 1003 14 273
1960267N18116 1960 73 WP MM NOT_NAMED 1960-09-27 09:00:00 TS 21.3882 105.909 main 0 0 __P___________ -1 21.3882 105.909 0 1003 15 255
1960267N18116 1960 73 WP MM NOT_NAMED 1960-09-27 12:00:00 TS 21.1000 105.100 main 0 __O___________ -1 21.1000 105.100 0 1003 16 249

Digital Typhoon Data and Search

About IBTrACS Database

This database is a web-friendly format of International Best Track Archive for Climate Stewardship (IBTrACS), a global best track data archive curated by NOAA dating back to 1842.

Updated: 2021-10-27